sensor_id;sensor_type;location;lat;lon;timestamp;pressure;altitude;pressure_sealevel;temperature;humidity
40570;BME280;26270;34.428;-119.710;2022-12-18T00:01:01;101143.08;;;17.75;35.29
40570;BME280;26270;34.428;-119.710;2022-12-18T00:03:30;101142.48;;;17.69;35.41
40570;BME280;26270;34.428;-119.710;2022-12-18T00:05:58;101144.48;;;17.64;35.26
40570;BME280;26270;34.428;-119.710;2022-12-18T00:08:27;101144.52;;;17.58;35.09
40570;BME280;26270;34.428;-119.710;2022-12-18T00:10:55;101144.72;;;17.56;35.06
40570;BME280;26270;34.428;-119.710;2022-12-18T00:13:23;101143.06;;;17.50;34.49
40570;BME280;26270;34.428;-119.710;2022-12-18T00:15:51;101143.23;;;17.57;35.44
40570;BME280;26270;34.428;-119.710;2022-12-18T00:18:20;101143.04;;;17.31;35.50
40570;BME280;26270;34.428;-119.710;2022-12-18T00:20:48;101142.37;;;17.30;35.75
40570;BME280;26270;34.428;-119.710;2022-12-18T00:23:16;101146.25;;;16.96;36.46
40570;BME280;26270;34.428;-119.710;2022-12-18T00:25:45;101146.42;;;17.13;36.04
40570;BME280;26270;34.428;-119.710;2022-12-18T00:28:13;101149.54;;;16.96;36.97
40570;BME280;26270;34.428;-119.710;2022-12-18T00:30:41;101148.11;;;16.77;37.50
40570;BME280;26270;34.428;-119.710;2022-12-18T00:33:10;101150.56;;;16.69;37.93
40570;BME280;26270;34.428;-119.710;2022-12-18T00:35:38;101149.36;;;16.74;37.41
40570;BME280;26270;34.428;-119.710;2022-12-18T00:38:06;101154.56;;;16.77;38.51
40570;BME280;26270;34.428;-119.710;2022-12-18T00:40:35;101157.94;;;16.73;38.51
40570;BME280;26270;34.428;-119.710;2022-12-18T00:43:03;101156.58;;;16.53;38.82
40570;BME280;26270;34.428;-119.710;2022-12-18T00:45:32;101156.85;;;16.48;39.06
40570;BME280;26270;34.428;-119.710;2022-12-18T00:48:00;101157.93;;;16.47;39.12
40570;BME280;26270;34.428;-119.710;2022-12-18T00:50:28;101163.42;;;16.22;39.39
40570;BME280;26270;34.428;-119.710;2022-12-18T00:52:57;101163.75;;;16.20;39.94
40570;BME280;26270;34.428;-119.710;2022-12-18T00:55:25;101166.05;;;16.19;39.95
40570;BME280;26270;34.428;-119.710;2022-12-18T00:57:53;101164.13;;;16.15;40.04
40570;BME280;26270;34.428;-119.710;2022-12-18T01:00:21;101165.51;;;16.12;40.29
40570;BME280;26270;34.428;-119.710;2022-12-18T01:02:50;101162.75;;;16.05;40.93
40570;BME280;26270;34.428;-119.710;2022-12-18T01:05:18;101162.29;;;15.92;41.60
40570;BME280;26270;34.428;-119.710;2022-12-18T01:07:46;101161.99;;;15.82;42.39
40570;BME280;26270;34.428;-119.710;2022-12-18T01:10:15;101163.04;;;15.84;42.55
40570;BME280;26270;34.428;-119.710;2022-12-18T01:12:44;101160.94;;;15.72;42.12
40570;BME280;26270;34.428;-119.710;2022-12-18T01:15:14;101161.51;;;15.72;42.91
40570;BME280;26270;34.428;-119.710;2022-12-18T01:17:43;101162.75;;;15.80;42.31
40570;BME280;26270;34.428;-119.710;2022-12-18T01:20:13;101164.84;;;15.61;43.02
40570;BME280;26270;34.428;-119.710;2022-12-18T01:22:41;101162.17;;;15.49;42.68
40570;BME280;26270;34.428;-119.710;2022-12-18T01:25:10;101159.96;;;15.47;42.66
40570;BME280;26270;34.428;-119.710;2022-12-18T01:27:38;101158.41;;;15.52;42.17
40570;BME280;26270;34.428;-119.710;2022-12-18T01:30:08;101157.41;;;15.42;42.26
40570;BME280;26270;34.428;-119.710;2022-12-18T01:32:36;101150.12;;;15.30;42.15
40570;BME280;26270;34.428;-119.710;2022-12-18T01:35:06;101149.91;;;15.24;42.43
40570;BME280;26270;34.428;-119.710;2022-12-18T01:37:34;101149.81;;;15.43;42.60
40570;BME280;26270;34.428;-119.710;2022-12-18T01:40:02;101149.68;;;15.40;43.40
40570;BME280;26270;34.428;-119.710;2022-12-18T01:42:30;101149.62;;;15.14;43.91
40570;BME280;26270;34.428;-119.710;2022-12-18T01:45:04;101146.37;;;15.17;44.19
40570;BME280;26270;34.428;-119.710;2022-12-18T01:47:37;101144.19;;;15.14;44.30
40570;BME280;26270;34.428;-119.710;2022-12-18T01:50:10;101145.95;;;14.97;44.82
40570;BME280;26270;34.428;-119.710;2022-12-18T01:52:43;101144.59;;;15.04;44.91
40570;BME280;26270;34.428;-119.710;2022-12-18T01:55:14;101143.28;;;14.95;45.36
40570;BME280;26270;34.428;-119.710;2022-12-18T01:57:44;101143.74;;;14.94;45.59
40570;BME280;26270;34.428;-119.710;2022-12-18T02:00:15;101140.75;;;14.84;45.91
40570;BME280;26270;34.428;-119.710;2022-12-18T02:02:46;101138.61;;;14.76;46.25
40570;BME280;26270;34.428;-119.710;2022-12-18T02:05:17;101139.92;;;14.52;46.57
40570;BME280;26270;34.428;-119.710;2022-12-18T02:07:55;101139.39;;;14.74;46.10
40570;BME280;26270;34.428;-119.710;2022-12-18T02:10:29;101138.88;;;14.69;46.13
40570;BME280;26270;34.428;-119.710;2022-12-18T02:13:06;101138.25;;;14.75;46.31
40570;BME280;26270;34.428;-119.710;2022-12-18T02:15:41;101137.30;;;14.66;46.38
40570;BME280;26270;34.428;-119.710;2022-12-18T02:18:18;101139.84;;;14.30;47.16
40570;BME280;26270;34.428;-119.710;2022-12-18T02:20:54;101141.86;;;14.30;47.74
40570;BME280;26270;34.428;-119.710;2022-12-18T02:23:38;101143.97;;;14.48;47.64
40570;BME280;26270;34.428;-119.710;2022-12-18T02:26:13;101149.53;;;14.28;47.97
40570;BME280;26270;34.428;-119.710;2022-12-18T02:28:45;101150.58;;;14.44;46.97
40570;BME280;26270;34.428;-119.710;2022-12-18T02:31:17;101150.07;;;14.41;49.11
40570;BME280;26270;34.428;-119.710;2022-12-18T02:33:50;101154.50;;;14.32;49.08
40570;BME280;26270;34.428;-119.710;2022-12-18T02:36:20;101151.03;;;14.48;48.20
40570;BME280;26270;34.428;-119.710;2022-12-18T02:38:51;101151.04;;;14.39;47.90
40570;BME280;26270;34.428;-119.710;2022-12-18T02:41:19;101151.45;;;14.29;47.42
40570;BME280;26270;34.428;-119.710;2022-12-18T02:43:56;101151.40;;;14.13;46.67
40570;BME280;26270;34.428;-119.710;2022-12-18T02:46:29;101153.06;;;14.13;46.57
40570;BME280;26270;34.428;-119.710;2022-12-18T02:49:04;101155.78;;;14.03;48.00
40570;BME280;26270;34.428;-119.710;2022-12-18T02:51:42;101155.89;;;13.97;48.44
40570;BME280;26270;34.428;-119.710;2022-12-18T02:54:23;101157.42;;;14.03;48.84
40570;BME280;26270;34.428;-119.710;2022-12-18T02:56:57;101163.79;;;14.11;48.68
40570;BME280;26270;34.428;-119.710;2022-12-18T02:59:34;101174.62;;;13.93;50.17
40570;BME280;26270;34.428;-119.710;2022-12-18T03:02:10;101176.86;;;14.05;49.55
40570;BME280;26270;34.428;-119.710;2022-12-18T03:04:49;101174.32;;;13.99;48.86
40570;BME280;26270;34.428;-119.710;2022-12-18T03:07:27;101178.71;;;13.52;49.54
40570;BME280;26270;34.428;-119.710;2022-12-18T03:10:01;101185.89;;;13.69;49.75
40570;BME280;26270;34.428;-119.710;2022-12-18T03:12:32;101187.67;;;13.54;50.11
40570;BME280;26270;34.428;-119.710;2022-12-18T03:15:04;101190.09;;;13.21;50.30
40570;BME280;26270;34.428;-119.710;2022-12-18T03:17:37;101191.40;;;13.21;50.06
40570;BME280;26270;34.428;-119.710;2022-12-18T03:20:12;101192.50;;;13.55;49.35
40570;BME280;26270;34.428;-119.710;2022-12-18T03:22:46;101194.83;;;13.69;50.00
40570;BME280;26270;34.428;-119.710;2022-12-18T03:25:15;101196.67;;;13.65;48.45
40570;BME280;26270;34.428;-119.710;2022-12-18T03:27:47;101200.64;;;13.47;49.04
40570;BME280;26270;34.428;-119.710;2022-12-18T03:30:17;101200.32;;;13.42;48.28
40570;BME280;26270;34.428;-119.710;2022-12-18T03:32:50;101201.21;;;13.26;47.58
40570;BME280;26270;34.428;-119.710;2022-12-18T03:35:23;101198.22;;;13.50;46.75
40570;BME280;26270;34.428;-119.710;2022-12-18T03:37:52;101199.20;;;13.57;47.26
40570;BME280;26270;34.428;-119.710;2022-12-18T03:40:25;101202.42;;;13.47;48.23
40570;BME280;26270;34.428;-119.710;2022-12-18T03:43:01;101207.45;;;13.61;48.57
40570;BME280;26270;34.428;-119.710;2022-12-18T03:45:34;101209.04;;;13.65;47.98
40570;BME280;26270;34.428;-119.710;2022-12-18T03:48:07;101211.66;;;13.41;48.09
40570;BME280;26270;34.428;-119.710;2022-12-18T03:50:42;101213.56;;;12.96;49.07
40570;BME280;26270;34.428;-119.710;2022-12-18T03:53:22;101211.09;;;12.78;48.90
40570;BME280;26270;34.428;-119.710;2022-12-18T03:55:54;101205.05;;;13.15;47.87
40570;BME280;26270;34.428;-119.710;2022-12-18T03:58:25;101204.31;;;13.24;51.77
40570;BME280;26270;34.428;-119.710;2022-12-18T04:00:56;101206.71;;;13.22;50.21
40570;BME280;26270;34.428;-119.710;2022-12-18T04:03:27;101209.39;;;13.48;50.04
40570;BME280;26270;34.428;-119.710;2022-12-18T04:05:57;101214.11;;;13.43;48.19
40570;BME280;26270;34.428;-119.710;2022-12-18T04:08:27;101214.38;;;13.36;48.04
40570;BME280;26270;34.428;-119.710;2022-12-18T04:10:55;101213.67;;;13.28;48.54
40570;BME280;26270;34.428;-119.710;2022-12-18T04:13:24;101217.01;;;13.37;49.24
40570;BME280;26270;34.428;-119.710;2022-12-18T04:15:55;101219.89;;;13.28;49.62
40570;BME280;26270;34.428;-119.710;2022-12-18T04:18:23;101223.36;;;13.23;50.33
40570;BME280;26270;34.428;-119.710;2022-12-18T04:20:51;101220.57;;;13.09;49.34
40570;BME280;26270;34.428;-119.710;2022-12-18T04:23:20;101219.15;;;13.24;48.99
40570;BME280;26270;34.428;-119.710;2022-12-18T04:25:48;101219.37;;;13.23;49.37
40570;BME280;26270;34.428;-119.710;2022-12-18T04:28:16;101215.55;;;13.28;49.80
40570;BME280;26270;34.428;-119.710;2022-12-18T04:30:51;101217.75;;;13.19;50.89
40570;BME280;26270;34.428;-119.710;2022-12-18T04:33:19;101214.08;;;13.17;50.72
40570;BME280;26270;34.428;-119.710;2022-12-18T04:35:48;101209.63;;;13.04;51.66
40570;BME280;26270;34.428;-119.710;2022-12-18T04:38:16;101209.24;;;13.12;51.33
40570;BME280;26270;34.428;-119.710;2022-12-18T04:40:44;101213.29;;;13.08;51.31
40570;BME280;26270;34.428;-119.710;2022-12-18T04:43:12;101212.79;;;13.17;51.34
40570;BME280;26270;34.428;-119.710;2022-12-18T04:45:40;101213.87;;;12.62;51.75
40570;BME280;26270;34.428;-119.710;2022-12-18T04:48:08;101212.54;;;12.68;51.94
40570;BME280;26270;34.428;-119.710;2022-12-18T04:50:37;101212.38;;;12.81;52.81
40570;BME280;26270;34.428;-119.710;2022-12-18T04:53:05;101208.41;;;13.07;50.91
40570;BME280;26270;34.428;-119.710;2022-12-18T04:55:34;101212.62;;;12.73;52.39
40570;BME280;26270;34.428;-119.710;2022-12-18T04:58:02;101208.17;;;12.65;52.81
40570;BME280;26270;34.428;-119.710;2022-12-18T05:03:19;101203.19;;;12.85;50.94
40570;BME280;26270;34.428;-119.710;2022-12-18T05:05:50;101201.83;;;12.77;50.28
40570;BME280;26270;34.428;-119.710;2022-12-18T05:08:18;101199.59;;;12.84;49.74
40570;BME280;26270;34.428;-119.710;2022-12-18T05:10:46;101199.04;;;12.61;49.09
40570;BME280;26270;34.428;-119.710;2022-12-18T05:13:15;101199.99;;;12.72;49.75
40570;BME280;26270;34.428;-119.710;2022-12-18T05:15:43;101198.25;;;12.78;49.48
40570;BME280;26270;34.428;-119.710;2022-12-18T05:18:18;101194.91;;;12.51;48.26
40570;BME280;26270;34.428;-119.710;2022-12-18T05:20:46;101191.55;;;12.63;48.74
40570;BME280;26270;34.428;-119.710;2022-12-18T05:23:15;101193.90;;;12.39;48.32
40570;BME280;26270;34.428;-119.710;2022-12-18T05:25:51;101193.69;;;12.42;49.11
40570;BME280;26270;34.428;-119.710;2022-12-18T05:28:19;101195.50;;;12.36;50.54
40570;BME280;26270;34.428;-119.710;2022-12-18T05:30:49;101193.66;;;12.21;50.83
40570;BME280;26270;34.428;-119.710;2022-12-18T05:33:17;101193.90;;;12.39;50.98
40570;BME280;26270;34.428;-119.710;2022-12-18T05:35:51;101194.28;;;12.26;50.77
40570;BME280;26270;34.428;-119.710;2022-12-18T05:38:20;101193.33;;;12.19;49.10
40570;BME280;26270;34.428;-119.710;2022-12-18T05:40:48;101194.44;;;12.21;50.44
40570;BME280;26270;34.428;-119.710;2022-12-18T05:43:17;101195.47;;;12.15;50.77
40570;BME280;26270;34.428;-119.710;2022-12-18T05:45:45;101195.28;;;12.02;50.25
40570;BME280;26270;34.428;-119.710;2022-12-18T05:48:14;101198.69;;;12.10;50.67
40570;BME280;26270;34.428;-119.710;2022-12-18T05:50:44;101202.78;;;11.94;51.58
40570;BME280;26270;34.428;-119.710;2022-12-18T05:53:14;101207.92;;;11.93;51.64
40570;BME280;26270;34.428;-119.710;2022-12-18T05:55:43;101213.71;;;11.87;51.82
40570;BME280;26270;34.428;-119.710;2022-12-18T05:58:13;101213.29;;;11.67;52.68
40570;BME280;26270;34.428;-119.710;2022-12-18T06:00:43;101217.93;;;11.93;52.01
40570;BME280;26270;34.428;-119.710;2022-12-18T06:03:12;101224.64;;;11.76;52.29
40570;BME280;26270;34.428;-119.710;2022-12-18T06:05:44;101227.24;;;11.72;53.00
40570;BME280;26270;34.428;-119.710;2022-12-18T06:08:12;101230.23;;;11.60;53.12
40570;BME280;26270;34.428;-119.710;2022-12-18T06:10:41;101228.21;;;11.42;52.89
40570;BME280;26270;34.428;-119.710;2022-12-18T06:13:10;101227.26;;;11.32;53.41
40570;BME280;26270;34.428;-119.710;2022-12-18T06:15:38;101232.45;;;11.50;53.82
40570;BME280;26270;34.428;-119.710;2022-12-18T06:18:06;101230.78;;;11.26;53.94
40570;BME280;26270;34.428;-119.710;2022-12-18T06:20:34;101230.23;;;11.41;53.62
40570;BME280;26270;34.428;-119.710;2022-12-18T06:23:02;101229.81;;;11.35;53.44
40570;BME280;26270;34.428;-119.710;2022-12-18T06:25:30;101228.45;;;11.25;53.21
40570;BME280;26270;34.428;-119.710;2022-12-18T06:27:59;101226.26;;;11.22;52.71
40570;BME280;26270;34.428;-119.710;2022-12-18T06:30:27;101224.32;;;11.37;52.62
40570;BME280;26270;34.428;-119.710;2022-12-18T06:32:55;101222.21;;;11.32;54.22
40570;BME280;26270;34.428;-119.710;2022-12-18T06:35:23;101221.27;;;11.18;54.04
40570;BME280;26270;34.428;-119.710;2022-12-18T06:37:51;101222.06;;;11.40;53.61
40570;BME280;26270;34.428;-119.710;2022-12-18T06:40:19;101221.13;;;11.23;54.03
40570;BME280;26270;34.428;-119.710;2022-12-18T06:42:47;101216.86;;;11.27;54.96
40570;BME280;26270;34.428;-119.710;2022-12-18T06:45:16;101211.19;;;11.36;55.04
40570;BME280;26270;34.428;-119.710;2022-12-18T06:47:44;101207.04;;;11.50;53.17
40570;BME280;26270;34.428;-119.710;2022-12-18T06:50:13;101199.20;;;11.57;53.12
40570;BME280;26270;34.428;-119.710;2022-12-18T06:52:41;101192.59;;;11.01;54.61
40570;BME280;26270;34.428;-119.710;2022-12-18T06:55:10;101190.61;;;11.03;55.34
40570;BME280;26270;34.428;-119.710;2022-12-18T06:57:38;101193.62;;;11.32;55.58
40570;BME280;26270;34.428;-119.710;2022-12-18T07:00:07;101189.55;;;11.06;54.82
40570;BME280;26270;34.428;-119.710;2022-12-18T07:02:36;101188.61;;;11.10;55.54
40570;BME280;26270;34.428;-119.710;2022-12-18T07:05:04;101183.22;;;10.95;55.44
40570;BME280;26270;34.428;-119.710;2022-12-18T07:07:34;101180.18;;;10.83;55.86
40570;BME280;26270;34.428;-119.710;2022-12-18T07:10:02;101183.73;;;10.94;55.95
40570;BME280;26270;34.428;-119.710;2022-12-18T07:12:30;101181.79;;;10.93;55.82
40570;BME280;26270;34.428;-119.710;2022-12-18T07:14:58;101181.91;;;10.68;55.05
40570;BME280;26270;34.428;-119.710;2022-12-18T07:17:26;101186.68;;;10.52;55.58
40570;BME280;26270;34.428;-119.710;2022-12-18T07:19:54;101189.69;;;10.27;55.59
40570;BME280;26270;34.428;-119.710;2022-12-18T07:22:21;101189.33;;;10.38;56.28
40570;BME280;26270;34.428;-119.710;2022-12-18T07:24:50;101191.87;;;10.25;55.58
40570;BME280;26270;34.428;-119.710;2022-12-18T07:27:19;101192.17;;;10.46;55.83
40570;BME280;26270;34.428;-119.710;2022-12-18T07:29:47;101192.12;;;10.47;54.60
40570;BME280;26270;34.428;-119.710;2022-12-18T07:32:16;101190.19;;;10.37;54.81
40570;BME280;26270;34.428;-119.710;2022-12-18T07:34:44;101196.74;;;10.61;54.66
40570;BME280;26270;34.428;-119.710;2022-12-18T07:37:12;101195.04;;;10.59;54.46
40570;BME280;26270;34.428;-119.710;2022-12-18T07:39:39;101196.88;;;10.47;54.83
40570;BME280;26270;34.428;-119.710;2022-12-18T07:42:08;101194.96;;;10.43;54.78
40570;BME280;26270;34.428;-119.710;2022-12-18T07:44:37;101196.55;;;10.69;53.92
40570;BME280;26270;34.428;-119.710;2022-12-18T07:47:05;101200.44;;;10.59;55.19
40570;BME280;26270;34.428;-119.710;2022-12-18T07:49:34;101202.69;;;10.62;54.76
40570;BME280;26270;34.428;-119.710;2022-12-18T07:52:02;101205.88;;;10.64;54.14
40570;BME280;26270;34.428;-119.710;2022-12-18T07:54:30;101206.91;;;10.71;54.52
40570;BME280;26270;34.428;-119.710;2022-12-18T07:56:58;101206.39;;;10.67;54.83
40570;BME280;26270;34.428;-119.710;2022-12-18T07:59:27;101205.84;;;10.64;54.95
40570;BME280;26270;34.428;-119.710;2022-12-18T08:01:55;101205.76;;;10.51;54.64
40570;BME280;26270;34.428;-119.710;2022-12-18T08:04:23;101208.21;;;10.39;55.27
40570;BME280;26270;34.428;-119.710;2022-12-18T08:06:52;101206.41;;;10.16;56.27
40570;BME280;26270;34.428;-119.710;2022-12-18T08:09:20;101205.06;;;10.33;55.53
40570;BME280;26270;34.428;-119.710;2022-12-18T08:11:48;101204.89;;;10.43;54.23
40570;BME280;26270;34.428;-119.710;2022-12-18T08:14:16;101203.40;;;10.27;54.51
40570;BME280;26270;34.428;-119.710;2022-12-18T08:16:45;101202.25;;;10.05;55.24
40570;BME280;26270;34.428;-119.710;2022-12-18T08:19:13;101197.69;;;10.42;55.35
40570;BME280;26270;34.428;-119.710;2022-12-18T08:21:42;101197.37;;;10.03;54.97
40570;BME280;26270;34.428;-119.710;2022-12-18T08:24:10;101198.53;;;10.08;55.27
40570;BME280;26270;34.428;-119.710;2022-12-18T08:26:39;101197.22;;;9.99;55.04
40570;BME280;26270;34.428;-119.710;2022-12-18T08:29:06;101192.61;;;10.09;55.24
40570;BME280;26270;34.428;-119.710;2022-12-18T08:31:35;101189.74;;;10.16;54.03
40570;BME280;26270;34.428;-119.710;2022-12-18T08:34:03;101185.65;;;10.20;53.96
40570;BME280;26270;34.428;-119.710;2022-12-18T08:36:30;101180.31;;;10.10;55.04
40570;BME280;26270;34.428;-119.710;2022-12-18T08:38:59;101181.08;;;10.11;54.71
40570;BME280;26270;34.428;-119.710;2022-12-18T08:41:27;101178.55;;;10.08;54.59
40570;BME280;26270;34.428;-119.710;2022-12-18T08:43:55;101179.56;;;10.11;55.18
40570;BME280;26270;34.428;-119.710;2022-12-18T08:46:25;101172.61;;;9.82;53.83
40570;BME280;26270;34.428;-119.710;2022-12-18T08:48:55;101167.74;;;9.61;54.26
40570;BME280;26270;34.428;-119.710;2022-12-18T08:51:23;101163.16;;;9.81;54.41
40570;BME280;26270;34.428;-119.710;2022-12-18T08:53:54;101160.49;;;9.80;54.59
40570;BME280;26270;34.428;-119.710;2022-12-18T08:56:22;101155.25;;;10.08;54.36
40570;BME280;26270;34.428;-119.710;2022-12-18T08:58:52;101152.56;;;9.76;54.67
40570;BME280;26270;34.428;-119.710;2022-12-18T09:01:21;101150.76;;;9.46;55.24
40570;BME280;26270;34.428;-119.710;2022-12-18T09:03:50;101153.59;;;9.78;54.87
40570;BME280;26270;34.428;-119.710;2022-12-18T09:06:19;101157.35;;;9.86;55.36
40570;BME280;26270;34.428;-119.710;2022-12-18T09:08:48;101156.40;;;9.81;56.12
40570;BME280;26270;34.428;-119.710;2022-12-18T09:11:21;101153.18;;;9.77;56.66
40570;BME280;26270;34.428;-119.710;2022-12-18T09:13:50;101151.65;;;9.95;55.49
40570;BME280;26270;34.428;-119.710;2022-12-18T09:16:19;101147.90;;;9.48;55.81
40570;BME280;26270;34.428;-119.710;2022-12-18T09:18:47;101148.29;;;9.50;55.29
40570;BME280;26270;34.428;-119.710;2022-12-18T09:21:18;101150.91;;;9.77;55.57
40570;BME280;26270;34.428;-119.710;2022-12-18T09:23:50;101154.92;;;9.58;56.58
40570;BME280;26270;34.428;-119.710;2022-12-18T09:26:18;101156.58;;;9.51;56.69
40570;BME280;26270;34.428;-119.710;2022-12-18T09:28:47;101154.55;;;9.44;56.95
40570;BME280;26270;34.428;-119.710;2022-12-18T09:31:16;101152.45;;;9.62;57.02
40570;BME280;26270;34.428;-119.710;2022-12-18T09:33:45;101149.76;;;9.52;57.53
40570;BME280;26270;34.428;-119.710;2022-12-18T09:36:15;101148.05;;;9.49;57.26
40570;BME280;26270;34.428;-119.710;2022-12-18T09:38:44;101146.33;;;9.44;57.27
40570;BME280;26270;34.428;-119.710;2022-12-18T09:41:25;101148.55;;;9.42;55.55
40570;BME280;26270;34.428;-119.710;2022-12-18T09:44:01;101147.60;;;9.26;56.49
40570;BME280;26270;34.428;-119.710;2022-12-18T09:46:33;101149.20;;;9.36;56.62
40570;BME280;26270;34.428;-119.710;2022-12-18T09:49:05;101149.31;;;9.60;56.12
40570;BME280;26270;34.428;-119.710;2022-12-18T09:51:39;101150.39;;;9.46;55.35
40570;BME280;26270;34.428;-119.710;2022-12-18T09:54:14;101148.18;;;9.29;56.07
40570;BME280;26270;34.428;-119.710;2022-12-18T09:56:44;101145.74;;;9.52;56.46
40570;BME280;26270;34.428;-119.710;2022-12-18T09:59:19;101149.88;;;9.39;56.39
40570;BME280;26270;34.428;-119.710;2022-12-18T10:01:49;101148.57;;;9.28;56.93
40570;BME280;26270;34.428;-119.710;2022-12-18T10:04:17;101147.51;;;9.17;56.43
40570;BME280;26270;34.428;-119.710;2022-12-18T10:06:52;101144.56;;;9.34;56.48
40570;BME280;26270;34.428;-119.710;2022-12-18T10:09:29;101141.29;;;9.50;56.37
40570;BME280;26270;34.428;-119.710;2022-12-18T10:12:07;101142.81;;;9.63;55.45
40570;BME280;26270;34.428;-119.710;2022-12-18T10:14:46;101140.56;;;9.53;56.07
40570;BME280;26270;34.428;-119.710;2022-12-18T10:17:26;101131.80;;;9.39;56.14
40570;BME280;26270;34.428;-119.710;2022-12-18T10:20:01;101132.17;;;9.26;55.94
40570;BME280;26270;34.428;-119.710;2022-12-18T10:22:40;101130.62;;;9.19;56.17
40570;BME280;26270;34.428;-119.710;2022-12-18T10:25:20;101129.77;;;9.28;56.18
40570;BME280;26270;34.428;-119.710;2022-12-18T10:27:54;101131.18;;;9.17;56.09
40570;BME280;26270;34.428;-119.710;2022-12-18T10:30:25;101130.04;;;9.15;56.21
40570;BME280;26270;34.428;-119.710;2022-12-18T10:32:54;101130.92;;;9.11;56.91
40570;BME280;26270;34.428;-119.710;2022-12-18T10:35:28;101131.32;;;8.99;57.32
40570;BME280;26270;34.428;-119.710;2022-12-18T10:38:03;101134.39;;;9.07;56.66
40570;BME280;26270;34.428;-119.710;2022-12-18T10:40:32;101135.59;;;9.04;55.29
40570;BME280;26270;34.428;-119.710;2022-12-18T10:43:19;101139.62;;;9.06;56.19
40570;BME280;26270;34.428;-119.710;2022-12-18T10:46:01;101139.74;;;8.87;55.41
40570;BME280;26270;34.428;-119.710;2022-12-18T10:48:31;101144.46;;;8.85;55.42
40570;BME280;26270;34.428;-119.710;2022-12-18T10:51:01;101144.31;;;8.94;55.52
40570;BME280;26270;34.428;-119.710;2022-12-18T10:53:33;101141.73;;;8.90;55.31
40570;BME280;26270;34.428;-119.710;2022-12-18T10:56:03;101146.16;;;8.88;55.70
40570;BME280;26270;34.428;-119.710;2022-12-18T10:58:33;101141.59;;;8.76;55.30
40570;BME280;26270;34.428;-119.710;2022-12-18T11:01:05;101142.61;;;8.65;55.19
40570;BME280;26270;34.428;-119.710;2022-12-18T11:03:36;101143.72;;;8.84;54.93
40570;BME280;26270;34.428;-119.710;2022-12-18T11:06:07;101143.72;;;8.48;54.62
40570;BME280;26270;34.428;-119.710;2022-12-18T11:08:36;101144.57;;;8.34;54.48
40570;BME280;26270;34.428;-119.710;2022-12-18T11:11:09;101147.09;;;8.18;53.86
40570;BME280;26270;34.428;-119.710;2022-12-18T11:13:52;101148.19;;;8.13;53.76
40570;BME280;26270;34.428;-119.710;2022-12-18T11:16:25;101145.04;;;8.20;53.43
40570;BME280;26270;34.428;-119.710;2022-12-18T11:18:53;101145.11;;;8.37;53.14
40570;BME280;26270;34.428;-119.710;2022-12-18T11:21:22;101140.73;;;8.76;54.64
40570;BME280;26270;34.428;-119.710;2022-12-18T11:23:52;101135.85;;;8.57;55.73
40570;BME280;26270;34.428;-119.710;2022-12-18T11:26:20;101128.87;;;8.55;56.46
40570;BME280;26270;34.428;-119.710;2022-12-18T11:29:09;101125.48;;;8.69;55.84
40570;BME280;26270;34.428;-119.710;2022-12-18T11:31:38;101125.64;;;8.58;56.26
40570;BME280;26270;34.428;-119.710;2022-12-18T11:34:09;101122.27;;;8.30;56.50
40570;BME280;26270;34.428;-119.710;2022-12-18T11:36:41;101121.04;;;8.32;56.65
40570;BME280;26270;34.428;-119.710;2022-12-18T11:39:14;101117.74;;;8.45;56.36
40570;BME280;26270;34.428;-119.710;2022-12-18T11:41:52;101117.62;;;8.74;54.47
40570;BME280;26270;34.428;-119.710;2022-12-18T11:44:27;101117.86;;;8.66;55.86
40570;BME280;26270;34.428;-119.710;2022-12-18T11:47:03;101120.02;;;8.59;55.84
40570;BME280;26270;34.428;-119.710;2022-12-18T11:49:39;101122.33;;;8.47;56.33
40570;BME280;26270;34.428;-119.710;2022-12-18T11:52:15;101118.01;;;8.54;55.42
40570;BME280;26270;34.428;-119.710;2022-12-18T11:54:45;101117.20;;;8.52;56.24
40570;BME280;26270;34.428;-119.710;2022-12-18T11:57:18;101117.55;;;8.44;56.61
40570;BME280;26270;34.428;-119.710;2022-12-18T12:00:00;101116.51;;;8.72;55.84
40570;BME280;26270;34.428;-119.710;2022-12-18T12:02:41;101115.05;;;8.65;56.25
40570;BME280;26270;34.428;-119.710;2022-12-18T12:05:29;101114.28;;;8.53;54.85
40570;BME280;26270;34.428;-119.710;2022-12-18T12:08:06;101113.62;;;8.75;54.06
40570;BME280;26270;34.428;-119.710;2022-12-18T12:10:46;101111.99;;;8.72;54.10
40570;BME280;26270;34.428;-119.710;2022-12-18T12:13:28;101113.12;;;8.66;54.96
40570;BME280;26270;34.428;-119.710;2022-12-18T12:16:09;101116.74;;;8.52;54.97
40570;BME280;26270;34.428;-119.710;2022-12-18T12:18:50;101114.46;;;8.40;55.33
40570;BME280;26270;34.428;-119.710;2022-12-18T12:21:27;101112.21;;;8.38;55.13
40570;BME280;26270;34.428;-119.710;2022-12-18T12:24:01;101110.31;;;8.39;54.76
40570;BME280;26270;34.428;-119.710;2022-12-18T12:26:38;101114.83;;;8.46;55.20
40570;BME280;26270;34.428;-119.710;2022-12-18T12:29:23;101112.29;;;8.48;54.66
40570;BME280;26270;34.428;-119.710;2022-12-18T12:32:03;101110.48;;;8.35;54.91
40570;BME280;26270;34.428;-119.710;2022-12-18T12:34:43;101112.28;;;8.22;54.47
40570;BME280;26270;34.428;-119.710;2022-12-18T12:37:22;101114.80;;;8.25;54.22
40570;BME280;26270;34.428;-119.710;2022-12-18T12:39:54;101109.49;;;8.30;53.51
40570;BME280;26270;34.428;-119.710;2022-12-18T12:42:30;101107.48;;;8.26;53.77
40570;BME280;26270;34.428;-119.710;2022-12-18T12:45:03;101101.69;;;8.28;53.61